Time;durP1;ratioP1;P1;durP2;ratioP2;P2;SDS_P1;SDS_P2;PMS_P1;PMS_P2;Temp;Humidity;BMP_temperature;BMP_pressure;BME280_temperature;BME280_humidity;BME280_pressure;Samples;Min_cycle;Max_cycle;Signal;HPM_P1;HPM_P2
2022/04/04 00:01:06;;;;;;;6.40;2.50;;;5.00;99.90;;;;;;4998850;28;20049;-76
2022/04/04 00:03:31;;;;;;;7.53;2.72;;;5.00;99.90;;;;;;4998404;28;20030;-77
2022/04/04 00:05:57;;;;;;;13.25;3.10;;;5.10;99.90;;;;;;4998635;28;20034;-75
2022/04/04 00:08:23;;;;;;;13.25;3.35;;;5.00;99.90;;;;;;4999143;28;20038;-77
2022/04/04 00:10:48;;;;;;;10.23;2.53;;;5.10;99.90;;;;;;4996498;28;20468;-75
2022/04/04 00:13:14;;;;;;;14.20;3.50;;;5.10;99.90;;;;;;4996308;28;20022;-77
2022/04/04 00:15:41;;;;;;;11.38;2.72;;;5.00;99.90;;;;;;4996335;28;20403;-75
2022/04/04 00:18:08;;;;;;;12.25;2.90;;;5.00;99.90;;;;;;4998261;28;20046;-75
2022/04/04 00:20:34;;;;;;;10.43;2.78;;;5.10;99.90;;;;;;4998940;28;20117;-78
2022/04/04 00:23:00;;;;;;;16.92;3.85;;;5.10;99.90;;;;;;5010628;28;20110;-75
2022/04/04 00:25:25;;;;;;;16.38;2.90;;;5.10;99.90;;;;;;5019234;28;20018;-74
2022/04/04 00:27:51;;;;;;;14.05;3.00;;;5.10;99.90;;;;;;4997827;28;20129;-77
2022/04/04 00:30:17;;;;;;;9.15;2.83;;;5.00;99.90;;;;;;4999792;28;20109;-75
2022/04/04 00:32:43;;;;;;;15.20;3.10;;;5.10;99.90;;;;;;5000009;28;20080;-78
2022/04/04 00:35:09;;;;;;;10.48;2.90;;;5.10;99.90;;;;;;5009018;28;20499;-77
2022/04/04 00:37:37;;;;;;;10.75;2.85;;;5.10;99.90;;;;;;5007204;28;20030;-77
2022/04/04 00:40:04;;;;;;;10.30;2.70;;;5.10;99.90;;;;;;5002169;28;20097;-77
2022/04/04 00:42:30;;;;;;;9.32;2.50;;;5.20;99.90;;;;;;4999989;28;20025;-77
2022/04/04 00:44:56;;;;;;;16.92;3.13;;;5.10;99.90;;;;;;5001627;28;20089;-77
2022/04/04 00:47:21;;;;;;;9.07;2.83;;;5.10;99.90;;;;;;5001145;28;20037;-76
2022/04/04 00:49:48;;;;;;;14.50;3.20;;;5.10;99.90;;;;;;5000420;28;20470;-77
2022/04/04 00:52:13;;;;;;;10.57;3.05;;;5.10;99.90;;;;;;4998249;28;20077;-76
2022/04/04 00:54:39;;;;;;;8.68;2.97;;;5.10;99.90;;;;;;4997881;28;20464;-76
2022/04/04 00:57:05;;;;;;;10.73;3.05;;;5.10;99.90;;;;;;4996698;28;20067;-77
2022/04/04 00:59:31;;;;;;;15.75;3.22;;;5.00;99.90;;;;;;4997304;28;20030;-77
2022/04/04 01:01:57;;;;;;;12.57;2.90;;;5.00;99.90;;;;;;4996046;28;20081;-77
2022/04/04 01:04:22;;;;;;;19.35;3.67;;;5.10;99.90;;;;;;4997623;28;20483;-77
2022/04/04 01:06:48;;;;;;;10.30;3.05;;;5.00;99.90;;;;;;4999119;28;20026;-76
2022/04/04 01:09:14;;;;;;;12.13;3.22;;;5.00;99.90;;;;;;4996767;28;20034;-76
2022/04/04 01:12:08;;;;;;;13.20;3.00;;;5.00;99.90;;;;;;5000621;28;20082;-75
2022/04/04 01:14:45;;;;;;;17.77;3.40;;;5.00;99.90;;;;;;4999866;28;20027;-77
2022/04/04 01:17:10;;;;;;;14.15;3.65;;;5.00;99.90;;;;;;4997836;28;20031;-76
2022/04/04 01:19:36;;;;;;;9.43;3.22;;;5.00;99.90;;;;;;4996711;28;20022;-78
2022/04/04 01:22:05;;;;;;;10.23;3.53;;;5.00;99.90;;;;;;4998483;28;20026;-77
2022/04/04 01:24:31;;;;;;;11.38;3.30;;;4.90;99.90;;;;;;5002760;28;20026;-77
2022/04/04 01:26:56;;;;;;;13.88;3.45;;;4.90;99.90;;;;;;4991911;28;20065;-76
2022/04/04 01:29:23;;;;;;;12.15;3.50;;;4.90;99.90;;;;;;4999267;28;20037;-77
2022/04/04 01:31:49;;;;;;;15.10;4.05;;;4.90;99.90;;;;;;5000354;28;20031;-76
2022/04/04 01:34:18;;;;;;;13.93;4.10;;;4.80;99.90;;;;;;4999077;28;20023;-77
2022/04/04 01:36:43;;;;;;;9.55;3.95;;;4.70;99.90;;;;;;4996212;28;20031;-78
2022/04/04 01:39:09;;;;;;;19.48;4.57;;;4.70;99.90;;;;;;4996612;28;20037;-76
2022/04/04 01:41:34;;;;;;;11.50;4.18;;;4.70;99.90;;;;;;4997028;28;20061;-78
2022/04/04 01:44:00;;;;;;;8.73;4.50;;;4.70;99.90;;;;;;4996503;28;20411;-75
2022/04/04 01:46:26;;;;;;;14.43;4.45;;;4.70;99.90;;;;;;4996556;28;20035;-76
2022/04/04 01:48:54;;;;;;;20.10;4.55;;;4.70;99.90;;;;;;5002488;28;20033;-78
2022/04/04 01:51:20;;;;;;;12.38;4.50;;;4.60;99.90;;;;;;4994795;28;20023;-76
2022/04/04 01:53:46;;;;;;;20.67;4.70;;;4.70;99.90;;;;;;4995179;28;20150;-76
2022/04/04 01:56:12;;;;;;;14.07;4.72;;;4.50;99.90;;;;;;4993213;28;20018;-77
2022/04/04 01:58:39;;;;;;;13.82;4.85;;;4.60;99.90;;;;;;4995196;28;20088;-76
2022/04/04 02:01:14;;;;;;;17.85;4.70;;;4.50;99.90;;;;;;4995472;28;20026;-76
2022/04/04 02:03:41;;;;;;;16.02;4.30;;;4.60;99.90;;;;;;4995236;28;20105;-76
2022/04/04 02:06:07;;;;;;;13.88;4.80;;;4.50;99.90;;;;;;4994459;28;20026;-75
2022/04/04 02:08:33;;;;;;;16.35;4.90;;;4.50;99.90;;;;;;4995696;28;20093;-76
2022/04/04 02:11:00;;;;;;;14.07;4.65;;;4.50;99.90;;;;;;4997384;28;20034;-78
2022/04/04 02:13:25;;;;;;;14.25;5.00;;;4.50;99.90;;;;;;4994469;28;20077;-77
2022/04/04 02:15:56;;;;;;;12.20;4.55;;;4.50;99.90;;;;;;4994038;28;20050;-76
2022/04/04 02:18:23;;;;;;;14.18;4.70;;;4.50;99.90;;;;;;4992789;28;20084;-76
2022/04/04 02:20:49;;;;;;;9.77;4.75;;;4.50;99.90;;;;;;4998054;28;20026;-76
2022/04/04 02:23:18;;;;;;;8.23;4.82;;;4.50;99.90;;;;;;5006634;28;20026;-76
2022/04/04 02:25:45;;;;;;;10.45;4.47;;;4.40;99.90;;;;;;5005840;28;20022;-75
2022/04/04 02:28:11;;;;;;;19.90;4.60;;;4.40;99.90;;;;;;4998498;28;20391;-77
2022/04/04 02:30:37;;;;;;;11.30;4.47;;;4.50;99.90;;;;;;4997342;28;20015;-77
2022/04/04 02:33:03;;;;;;;16.73;5.13;;;4.40;99.90;;;;;;5004047;28;20022;-77
2022/04/04 02:35:29;;;;;;;13.63;4.65;;;4.40;99.90;;;;;;4999073;28;20118;-76
2022/04/04 02:37:55;;;;;;;10.93;4.38;;;4.40;99.90;;;;;;5002060;28;20035;-78
2022/04/04 02:40:21;;;;;;;12.20;4.55;;;4.40;99.90;;;;;;5011918;28;20046;-77
2022/04/04 02:42:47;;;;;;;10.27;4.80;;;4.40;99.90;;;;;;5017634;28;20010;-74
2022/04/04 02:45:13;;;;;;;15.75;4.85;;;4.40;99.90;;;;;;5016869;28;20105;-75
2022/04/04 02:47:39;;;;;;;10.05;4.38;;;4.40;99.90;;;;;;5016999;28;20053;-76
2022/04/04 02:50:05;;;;;;;11.40;4.55;;;4.40;99.90;;;;;;5017357;28;20038;-76
2022/04/04 02:52:31;;;;;;;12.00;4.88;;;4.40;99.90;;;;;;5010321;28;20163;-76
2022/04/04 02:54:57;;;;;;;12.27;4.55;;;4.40;99.90;;;;;;4994121;28;20035;-76
2022/04/04 02:57:23;;;;;;;14.98;5.13;;;4.30;99.90;;;;;;4993912;28;20078;-76
2022/04/04 02:59:48;;;;;;;16.00;5.05;;;4.40;99.90;;;;;;4994458;28;20380;-77
2022/04/04 03:02:14;;;;;;;13.30;4.70;;;4.30;99.90;;;;;;4995025;28;20376;-76
2022/04/04 03:04:42;;;;;;;16.58;4.90;;;4.40;99.90;;;;;;4997363;28;20033;-76
2022/04/04 03:07:09;;;;;;;11.07;4.72;;;4.40;99.90;;;;;;4994855;28;20022;-77
2022/04/04 03:09:35;;;;;;;12.00;5.00;;;4.40;99.90;;;;;;4997258;28;20042;-78
2022/04/04 03:12:01;;;;;;;16.05;4.78;;;4.40;99.90;;;;;;4996018;28;20015;-75
2022/04/04 03:14:28;;;;;;;11.57;4.47;;;4.40;99.90;;;;;;4996132;28;20079;-77
2022/04/04 03:16:54;;;;;;;15.95;4.90;;;4.40;99.90;;;;;;5000354;28;20031;-78
2022/04/04 03:19:19;;;;;;;15.10;4.78;;;4.40;99.90;;;;;;5002174;28;20045;-77
2022/04/04 03:21:45;;;;;;;11.18;4.53;;;4.40;99.90;;;;;;5003272;28;20050;-77
2022/04/04 03:24:12;;;;;;;12.40;5.00;;;4.40;99.90;;;;;;5002069;28;20022;-77
2022/04/04 03:26:37;;;;;;;12.50;4.88;;;4.40;99.90;;;;;;4996756;28;20038;-77
2022/04/04 03:29:03;;;;;;;14.40;4.90;;;4.40;99.90;;;;;;4997005;28;20026;-79
2022/04/04 03:31:28;;;;;;;12.52;4.53;;;4.50;99.90;;;;;;4998025;28;20450;-76
2022/04/04 03:33:54;;;;;;;13.57;4.72;;;4.50;99.90;;;;;;4997880;28;20082;-78
2022/04/04 03:36:20;;;;;;;11.52;4.75;;;4.50;99.90;;;;;;4999784;28;20364;-77
2022/04/04 03:38:46;;;;;;;20.58;5.68;;;4.60;99.90;;;;;;4999295;28;20027;-79
2022/04/04 03:41:12;;;;;;;13.50;5.72;;;4.60;99.90;;;;;;5002132;28;20053;-76
2022/04/04 03:43:37;;;;;;;12.63;4.85;;;4.50;99.90;;;;;;5012174;28;20025;-78
2022/04/04 03:46:03;;;;;;;14.70;5.20;;;4.50;99.90;;;;;;5003933;28;20030;-78
2022/04/04 03:48:28;;;;;;;14.57;5.05;;;4.60;99.90;;;;;;5003143;28;20026;-78
2022/04/04 03:50:54;;;;;;;11.68;5.32;;;4.50;99.90;;;;;;5004514;28;20026;-77
2022/04/04 03:53:21;;;;;;;15.13;5.28;;;4.50;99.90;;;;;;5003217;28;20027;-79
2022/04/04 03:55:48;;;;;;;13.65;5.20;;;4.50;99.90;;;;;;5002504;28;20492;-77
2022/04/04 03:58:14;;;;;;;12.15;5.20;;;4.50;99.90;;;;;;5005472;28;20084;-78
2022/04/04 04:00:40;;;;;;;11.23;5.38;;;4.60;99.90;;;;;;5008840;28;20038;-77
2022/04/04 04:03:07;;;;;;;15.30;4.97;;;4.60;99.90;;;;;;5015841;28;20031;-77
2022/04/04 04:05:33;;;;;;;13.77;5.15;;;4.60;99.90;;;;;;5012009;28;20130;-77
2022/04/04 04:07:59;;;;;;;11.00;5.20;;;4.60;99.90;;;;;;5011056;28;20503;-77
2022/04/04 04:10:24;;;;;;;8.88;4.85;;;4.60;99.90;;;;;;5011264;28;20023;-78
2022/04/04 04:12:50;;;;;;;14.70;5.50;;;4.60;99.90;;;;;;5007495;28;20396;-77
2022/04/04 04:15:19;;;;;;;9.68;5.13;;;4.60;99.90;;;;;;5003280;28;20062;-75
2022/04/04 04:17:45;;;;;;;18.77;5.10;;;4.60;99.90;;;;;;5000799;28;20117;-76
2022/04/04 04:20:20;;;;;;;12.80;4.88;;;4.60;99.90;;;;;;5001054;28;20455;-78
2022/04/04 04:22:54;;;;;;;10.48;4.85;;;4.70;99.90;;;;;;4998084;28;20057;-76
2022/04/04 04:25:22;;;;;;;12.63;4.82;;;4.60;99.90;;;;;;5009602;28;20022;-75
2022/04/04 04:27:47;;;;;;;9.73;4.72;;;4.70;99.90;;;;;;5008692;28;20026;-74
2022/04/04 04:30:14;;;;;;;11.82;5.10;;;4.70;99.90;;;;;;5019405;28;20038;-75
2022/04/04 04:32:51;;;;;;;11.18;4.85;;;4.70;99.90;;;;;;5012514;28;20030;-77
2022/04/04 04:35:17;;;;;;;10.15;5.78;;;4.60;99.90;;;;;;5000346;28;20057;-75
2022/04/04 04:37:44;;;;;;;17.67;5.47;;;4.80;99.90;;;;;;4998751;28;20117;-76
2022/04/04 04:40:10;;;;;;;11.88;5.28;;;4.80;99.90;;;;;;4999682;28;20579;-77
2022/04/04 04:42:37;;;;;;;10.82;5.00;;;4.80;99.90;;;;;;5001640;28;20026;-78
2022/04/04 04:45:04;;;;;;;12.27;5.13;;;4.80;99.90;;;;;;4999443;28;20019;-78
2022/04/04 04:47:30;;;;;;;13.25;5.38;;;4.80;99.90;;;;;;5001603;28;20384;-77
2022/04/04 04:49:56;;;;;;;14.73;5.57;;;4.80;99.90;;;;;;5002485;28;20018;-77
2022/04/04 04:52:22;;;;;;;10.85;4.90;;;4.80;99.90;;;;;;5001533;28;20029;-78
2022/04/04 04:54:48;;;;;;;10.20;5.40;;;4.80;99.90;;;;;;5001343;28;20057;-77
2022/04/04 04:57:13;;;;;;;9.98;5.35;;;4.80;99.90;;;;;;4999739;28;20037;-78
2022/04/04 04:59:39;;;;;;;13.80;5.50;;;4.80;99.90;;;;;;5001936;28;20114;-78
2022/04/04 05:02:05;;;;;;;13.05;5.85;;;4.80;99.90;;;;;;4998239;28;20030;-77
2022/04/04 05:04:30;;;;;;;12.27;5.82;;;4.90;99.90;;;;;;4997955;28;20491;-76
2022/04/04 05:06:56;;;;;;;20.08;6.38;;;4.90;99.90;;;;;;5001595;28;20022;-76
2022/04/04 05:09:21;;;;;;;11.57;6.40;;;5.00;99.90;;;;;;5013293;28;20038;-76
2022/04/04 05:11:47;;;;;;;14.75;6.90;;;5.00;99.90;;;;;;5002238;28;20018;-76
2022/04/04 05:14:15;;;;;;;14.90;7.03;;;5.00;99.90;;;;;;4999445;28;20399;-77
2022/04/04 05:16:45;;;;;;;27.30;8.50;;;5.00;99.90;;;;;;5000492;28;20129;-77
2022/04/04 05:19:12;;;;;;;17.58;7.68;;;5.00;99.90;;;;;;4999892;28;20018;-76
2022/04/04 05:21:38;;;;;;;17.10;8.25;;;5.10;99.90;;;;;;4999179;28;20054;-77
2022/04/04 05:24:05;;;;;;;14.10;7.65;;;5.20;99.90;;;;;;4996365;28;20116;-77
2022/04/04 05:26:31;;;;;;;17.73;8.98;;;5.20;99.90;;;;;;4999326;28;20026;-77
2022/04/04 05:28:57;;;;;;;15.18;8.25;;;5.20;99.90;;;;;;5003083;28;20171;-76
2022/04/04 05:31:23;;;;;;;16.30;8.30;;;5.30;99.90;;;;;;5000706;28;20030;-76
2022/04/04 05:33:49;;;;;;;21.10;8.73;;;5.20;99.90;;;;;;4996630;28;20030;-76
2022/04/04 05:36:14;;;;;;;18.25;9.23;;;5.20;99.90;;;;;;4995443;28;20062;-76
2022/04/04 05:38:40;;;;;;;18.02;9.20;;;5.20;99.90;;;;;;4997702;28;20038;-76
2022/04/04 05:41:09;;;;;;;20.92;9.18;;;5.20;99.90;;;;;;5001718;28;20038;-77
2022/04/04 05:43:35;;;;;;;21.52;10.40;;;5.20;99.90;;;;;;5008208;28;20061;-76
2022/04/04 05:46:01;;;;;;;22.27;10.43;;;5.30;99.90;;;;;;5002640;28;20045;-79
2022/04/04 05:48:30;;;;;;;25.70;11.32;;;5.20;99.90;;;;;;5004681;28;20475;-76
2022/04/04 05:50:56;;;;;;;18.55;11.00;;;5.30;99.90;;;;;;5003219;28;20026;-77
2022/04/04 05:53:22;;;;;;;17.23;10.80;;;5.30;99.90;;;;;;4997788;28;20033;-78
2022/04/04 05:55:47;;;;;;;25.58;12.00;;;5.30;99.90;;;;;;4996136;28;20091;-75
2022/04/04 05:58:13;;;;;;;20.75;11.20;;;5.30;99.90;;;;;;4997460;28;20046;-76
2022/04/04 06:00:38;;;;;;;22.52;12.02;;;5.30;99.90;;;;;;5003094;28;20034;-76
2022/04/04 06:03:04;;;;;;;22.15;10.90;;;5.20;99.90;;;;;;5009208;28;20029;-76
2022/04/04 06:05:30;;;;;;;37.08;12.57;;;5.20;99.90;;;;;;5009078;28;20125;-78
2022/04/04 06:07:56;;;;;;;22.02;12.93;;;5.20;99.90;;;;;;4998299;28;20034;-77
2022/04/04 06:10:21;;;;;;;32.10;14.07;;;5.20;99.90;;;;;;4997855;28;20029;-78
2022/04/04 06:12:47;;;;;;;28.75;13.70;;;5.20;99.90;;;;;;4999894;28;20062;-78
2022/04/04 06:15:14;;;;;;;21.98;13.73;;;5.30;99.90;;;;;;4998500;28;20109;-77
2022/04/04 06:17:41;;;;;;;26.13;14.45;;;5.30;99.90;;;;;;5009599;23;20042;-75
2022/04/04 06:20:08;;;;;;;28.85;14.75;;;5.30;99.90;;;;;;5001045;28;20025;-77
2022/04/04 06:22:36;;;;;;;31.42;15.35;;;5.20;99.90;;;;;;4985322;28;20045;-77
2022/04/04 06:25:03;;;;;;;23.90;14.48;;;5.10;99.90;;;;;;5006730;28;20045;-79
2022/04/04 06:27:30;;;;;;;30.42;15.95;;;5.00;99.90;;;;;;5003775;28;20028;-75
2022/04/04 06:29:56;;;;;;;30.42;16.58;;;5.10;99.90;;;;;;4994043;28;20030;-75
2022/04/04 06:32:24;;;;;;;25.60;15.48;;;5.00;99.90;;;;;;4993374;28;20041;-73
2022/04/04 06:34:49;;;;;;;28.35;16.83;;;5.00;99.90;;;;;;4996292;28;20022;-76
2022/04/04 06:37:16;;;;;;;35.95;18.42;;;4.90;99.90;;;;;;5001048;28;20026;-76
2022/04/04 06:39:42;;;;;;;29.70;18.42;;;5.00;99.90;;;;;;4980789;28;20367;-76
2022/04/04 06:42:08;;;;;;;34.78;18.60;;;4.90;99.90;;;;;;4980715;28;20033;-76
2022/04/04 06:44:33;;;;;;;29.60;18.15;;;5.00;99.90;;;;;;4995800;28;20034;-76
2022/04/04 06:46:59;;;;;;;37.78;18.30;;;5.00;99.90;;;;;;4996268;28;20053;-77
2022/04/04 06:49:25;;;;;;;33.08;19.30;;;5.00;99.90;;;;;;4997126;28;20517;-78
2022/04/04 06:51:52;;;;;;;30.63;19.63;;;4.90;99.90;;;;;;4997597;28;20026;-77
2022/04/04 06:54:18;;;;;;;29.83;18.80;;;5.00;99.90;;;;;;4999599;28;20021;-77
2022/04/04 06:56:46;;;;;;;38.63;19.52;;;5.00;99.90;;;;;;5004239;28;20026;-76
2022/04/04 06:59:13;;;;;;;36.85;20.27;;;5.00;99.90;;;;;;4998775;28;20491;-76
2022/04/04 07:01:39;;;;;;;34.60;20.00;;;5.10;99.90;;;;;;4994309;28;20037;-77
2022/04/04 07:04:05;;;;;;;32.28;20.38;;;5.00;99.90;;;;;;4994388;28;20519;-76
2022/04/04 07:06:30;;;;;;;32.28;19.77;;;5.00;99.90;;;;;;4993736;28;20084;-76
2022/04/04 07:08:56;;;;;;;37.15;21.38;;;5.10;99.90;;;;;;4995565;28;20041;-77
2022/04/04 07:11:22;;;;;;;38.25;20.27;;;5.00;99.90;;;;;;4997075;28;20101;-77
2022/04/04 07:13:49;;;;;;;34.88;19.35;;;5.00;99.90;;;;;;4996685;28;20475;-77
2022/04/04 07:16:16;;;;;;;35.38;20.45;;;5.00;99.90;;;;;;4995278;28;20030;-77
2022/04/04 07:18:42;;;;;;;34.53;20.13;;;5.10;99.90;;;;;;4995850;28;20042;-77
2022/04/04 07:21:07;;;;;;;30.73;19.95;;;5.00;99.90;;;;;;4993175;28;20035;-75
2022/04/04 07:23:33;;;;;;;40.53;21.13;;;5.00;99.90;;;;;;4995716;28;20110;-75
2022/04/04 07:26:00;;;;;;;34.70;20.55;;;4.90;99.90;;;;;;5007360;28;20054;-76
2022/04/04 07:28:25;;;;;;;35.30;19.75;;;4.90;99.90;;;;;;4996092;28;20057;-77
2022/04/04 07:30:52;;;;;;;26.90;17.77;;;5.00;99.90;;;;;;5013505;28;20090;-77
2022/04/04 07:33:18;;;;;;;31.83;19.35;;;5.00;99.90;;;;;;5008640;28;20030;-76
2022/04/04 07:35:45;;;;;;;30.00;18.75;;;5.00;99.90;;;;;;5003888;28;20038;-77
2022/04/04 07:38:11;;;;;;;31.70;19.00;;;5.00;99.90;;;;;;5004325;28;20022;-78
2022/04/04 07:40:37;;;;;;;30.17;18.35;;;4.90;99.90;;;;;;5007708;28;20018;-78
2022/04/04 07:43:03;;;;;;;29.30;18.33;;;4.90;99.90;;;;;;4985045;28;20023;-78
2022/04/04 07:45:31;;;;;;;32.47;18.85;;;4.90;99.90;;;;;;4986293;28;20483;-78
2022/04/04 07:47:58;;;;;;;33.08;18.42;;;5.00;99.90;;;;;;4988401;28;20395;-75
2022/04/04 07:50:23;;;;;;;32.17;18.33;;;4.90;99.90;;;;;;4998394;28;20023;-75
2022/04/04 07:52:49;;;;;;;28.80;17.05;;;5.00;99.90;;;;;;4997469;28;20387;-75
2022/04/04 07:55:16;;;;;;;27.75;17.85;;;4.90;99.90;;;;;;5000743;28;20022;-76
2022/04/04 07:57:42;;;;;;;26.05;17.95;;;4.80;99.90;;;;;;5007791;28;20026;-75
2022/04/04 08:00:11;;;;;;;37.30;20.40;;;4.90;99.90;;;;;;5008190;28;20022;-74
2022/04/04 08:02:37;;;;;;;32.55;20.13;;;4.80;99.90;;;;;;5005271;28;20474;-75
2022/04/04 08:05:04;;;;;;;35.05;18.25;;;4.70;99.90;;;;;;4991295;28;20037;-75
2022/04/04 08:07:30;;;;;;;28.10;17.80;;;4.70;99.90;;;;;;5008367;28;20022;-76
2022/04/04 08:09:55;;;;;;;33.05;17.23;;;4.70;99.90;;;;;;4991239;28;20395;-75
2022/04/04 08:12:26;;;;;;;26.17;17.73;;;4.70;99.90;;;;;;4998682;28;20453;-76
2022/04/04 08:14:51;;;;;;;29.67;17.55;;;4.70;99.90;;;;;;4998246;28;20033;-76
2022/04/04 08:17:17;;;;;;;25.55;17.50;;;4.60;99.90;;;;;;4981595;28;20403;-75
2022/04/04 08:19:43;;;;;;;26.23;18.17;;;4.60;99.90;;;;;;4999006;28;20022;-75
2022/04/04 08:22:09;;;;;;;30.70;18.33;;;4.70;99.90;;;;;;4998709;28;20030;-77
2022/04/04 08:24:34;;;;;;;28.25;16.88;;;4.70;99.90;;;;;;4979845;28;20037;-75
2022/04/04 08:26:59;;;;;;;28.70;18.05;;;4.70;99.90;;;;;;4980733;28;20057;-75
2022/04/04 08:29:25;;;;;;;32.38;18.65;;;4.70;99.90;;;;;;5000184;28;20365;-76
2022/04/04 08:31:51;;;;;;;28.48;18.52;;;4.70;99.90;;;;;;4980840;28;20023;-77
2022/04/04 08:34:16;;;;;;;37.50;19.58;;;4.70;99.90;;;;;;4998192;28;20025;-75
2022/04/04 08:36:42;;;;;;;30.00;18.52;;;4.80;99.90;;;;;;4998446;28;20022;-75
2022/04/04 08:39:08;;;;;;;30.63;19.45;;;4.70;99.90;;;;;;4996921;28;20037;-76
2022/04/04 08:41:35;;;;;;;32.58;18.05;;;4.70;99.90;;;;;;4996378;28;20065;-76
2022/04/04 08:44:02;;;;;;;28.83;17.38;;;4.80;99.90;;;;;;4996350;28;20030;-75
2022/04/04 08:46:29;;;;;;;30.10;17.40;;;4.80;99.90;;;;;;4978792;28;20033;-76
2022/04/04 08:48:57;;;;;;;29.30;17.95;;;4.80;99.90;;;;;;4996177;28;20088;-75
2022/04/04 08:51:24;;;;;;;27.15;18.10;;;4.80;99.90;;;;;;4997333;28;20018;-78
2022/04/04 08:53:49;;;;;;;29.15;17.88;;;4.80;99.90;;;;;;4981321;28;20018;-74
2022/04/04 08:56:15;;;;;;;27.73;17.90;;;4.80;99.90;;;;;;4979921;28;20030;-76
2022/04/04 08:58:41;;;;;;;32.28;17.80;;;4.80;99.90;;;;;;5006534;28;20443;-74
2022/04/04 09:01:06;;;;;;;35.92;18.52;;;4.80;99.90;;;;;;4997933;28;20034;-73
2022/04/04 09:03:32;;;;;;;26.98;17.45;;;4.90;99.90;;;;;;4997243;28;20033;-76
2022/04/04 09:06:01;;;;;;;38.83;18.00;;;4.90;99.90;;;;;;4998279;28;20022;-77
2022/04/04 09:08:30;;;;;;;26.98;15.80;;;5.00;99.90;;;;;;5001140;28;20026;-76
2022/04/04 09:11:00;;;;;;;21.65;15.00;;;5.00;99.90;;;;;;4996501;28;20023;-78
2022/04/04 09:13:28;;;;;;;30.00;15.45;;;5.00;99.90;;;;;;4996339;28;20019;-76
2022/04/04 09:16:04;;;;;;;24.67;15.43;;;5.00;99.90;;;;;;4997620;28;20018;-75
2022/04/04 09:18:35;;;;;;;25.15;15.05;;;5.00;99.90;;;;;;4997682;28;20034;-75
2022/04/04 09:21:03;;;;;;;23.10;14.85;;;5.00;99.90;;;;;;4996095;28;20105;-76
2022/04/04 09:23:55;;;;;;;24.02;14.63;;;5.00;99.90;;;;;;4996691;28;20037;-76
2022/04/04 09:26:37;;;;;;;29.58;16.30;;;5.10;99.90;;;;;;4996249;28;20034;-74
2022/04/04 09:29:08;;;;;;;25.10;16.23;;;5.10;99.90;;;;;;4972233;28;20027;-76
2022/04/04 09:31:35;;;;;;;22.92;15.30;;;5.20;99.90;;;;;;4977395;28;20521;-74
2022/04/04 09:34:03;;;;;;;24.10;14.57;;;5.20;99.90;;;;;;4960079;28;20027;-77
2022/04/04 09:36:31;;;;;;;28.05;15.23;;;5.20;99.90;;;;;;4977644;28;20025;-77
2022/04/04 09:39:03;;;;;;;24.02;13.52;;;5.20;99.90;;;;;;4978279;28;20419;-76
2022/04/04 09:41:30;;;;;;;26.23;14.45;;;5.20;99.90;;;;;;4977594;28;20109;-77
2022/04/04 09:43:58;;;;;;;28.80;14.27;;;5.10;99.90;;;;;;4976196;28;20027;-76
2022/04/04 09:46:29;;;;;;;20.60;14.70;;;5.10;99.90;;;;;;4975191;28;20030;-76
2022/04/04 09:49:09;;;;;;;21.30;14.40;;;5.10;99.90;;;;;;4980071;28;20033;-76
2022/04/04 09:51:46;;;;;;;27.13;14.15;;;5.10;99.90;;;;;;4977255;28;20023;-78
2022/04/04 09:54:18;;;;;;;20.92;12.93;;;5.10;99.90;;;;;;4958823;28;20103;-76
2022/04/04 09:56:46;;;;;;;23.30;14.50;;;5.10;99.90;;;;;;4958465;28;20294;-76
2022/04/04 09:59:15;;;;;;;22.20;13.52;;;5.10;99.90;;;;;;4977698;28;20034;-76
2022/04/04 10:01:42;;;;;;;28.30;14.18;;;5.20;99.90;;;;;;4977245;28;20022;-76
2022/04/04 10:04:09;;;;;;;25.00;14.07;;;5.30;99.90;;;;;;4978954;28;20059;-75
2022/04/04 10:06:35;;;;;;;20.40;12.98;;;5.30;99.90;;;;;;4962085;28;20030;-75
2022/04/04 10:09:02;;;;;;;21.13;13.50;;;5.20;99.90;;;;;;4962767;28;20031;-76
2022/04/04 10:11:34;;;;;;;19.85;12.85;;;5.20;99.90;;;;;;4967038;28;20057;-74
2022/04/04 10:14:00;;;;;;;24.67;12.68;;;5.30;99.90;;;;;;4981548;28;20014;-77
2022/04/04 10:16:26;;;;;;;16.70;11.55;;;5.20;99.90;;;;;;4966805;28;20069;-77
2022/04/04 10:18:57;;;;;;;25.33;12.38;;;5.20;99.90;;;;;;4979906;28;20109;-77
2022/04/04 10:21:25;;;;;;;19.70;12.63;;;5.20;99.90;;;;;;4962555;28;20489;-76
2022/04/04 10:23:56;;;;;;;19.33;12.63;;;5.30;99.90;;;;;;4961531;28;20031;-76
2022/04/04 10:26:34;;;;;;;16.42;11.88;;;5.30;99.90;;;;;;4976095;28;20022;-77
2022/04/04 10:29:17;;;;;;;18.55;12.30;;;5.30;99.90;;;;;;4975554;28;20035;-76
2022/04/04 10:31:46;;;;;;;16.75;12.52;;;5.40;99.90;;;;;;4975769;28;20018;-75
2022/04/04 10:34:18;;;;;;;16.98;11.30;;;5.40;99.90;;;;;;4976696;28;20074;-76
2022/04/04 10:37:06;;;;;;;18.30;12.15;;;5.50;99.90;;;;;;4976185;28;20472;-76
2022/04/04 10:39:47;;;;;;;15.52;11.13;;;5.50;99.90;;;;;;4980123;28;20035;-76
2022/04/04 10:42:37;;;;;;;15.93;11.48;;;5.50;99.90;;;;;;4978790;28;20033;-77
2022/04/04 10:45:13;;;;;;;18.20;12.25;;;5.40;99.90;;;;;;4980895;28;20076;-75
2022/04/04 10:47:44;;;;;;;21.33;13.07;;;5.50;99.90;;;;;;4981905;28;20030;-76
2022/04/04 10:50:20;;;;;;;17.08;11.23;;;5.50;99.90;;;;;;4962115;28;20435;-77
2022/04/04 10:52:46;;;;;;;17.83;12.30;;;5.50;99.90;;;;;;4977044;28;20023;-76
2022/04/04 10:55:27;;;;;;;15.68;10.98;;;5.50;99.90;;;;;;4976604;28;20038;-76
2022/04/04 10:58:00;;;;;;;16.10;11.93;;;5.60;99.90;;;;;;4958650;28;20098;-74
2022/04/04 11:00:34;;;;;;;17.02;12.18;;;5.60;99.90;;;;;;4974583;28;20018;-75
2022/04/04 11:03:01;;;;;;;15.32;11.25;;;5.60;99.90;;;;;;4974846;28;20034;-75
2022/04/04 11:08:15;;;;;;;15.98;11.45;;;5.70;99.90;;;;;;4975707;28;20110;-77
2022/04/04 11:10:42;;;;;;;19.23;11.52;;;5.70;99.90;;;;;;4975049;28;20444;-76
2022/04/04 11:13:08;;;;;;;17.80;11.32;;;5.60;99.90;;;;;;4975932;28;20025;-75
2022/04/04 11:15:55;;;;;;;16.17;10.95;;;5.60;99.90;;;;;;4977696;28;20046;-76
2022/04/04 11:18:21;;;;;;;15.82;11.10;;;5.70;99.90;;;;;;4960148;28;20058;-75
2022/04/04 11:20:54;;;;;;;19.17;12.10;;;5.60;99.90;;;;;;4975562;28;20035;-78
2022/04/04 11:23:22;;;;;;;16.67;11.73;;;5.60;99.90;;;;;;4978149;28;20084;-75
2022/04/04 11:25:52;;;;;;;18.05;12.93;;;5.60;99.90;;;;;;5005610;28;20019;-76
2022/04/04 11:28:24;;;;;;;16.92;12.00;;;5.50;99.90;;;;;;5000879;28;20062;-78
2022/04/04 11:30:54;;;;;;;17.52;12.43;;;5.50;99.90;;;;;;4995846;28;20023;-76
2022/04/04 11:33:22;;;;;;;15.93;11.65;;;5.50;99.90;;;;;;4997492;28;20105;-77
2022/04/04 11:35:51;;;;;;;20.92;12.75;;;5.50;99.90;;;;;;4994800;28;20040;-77
2022/04/04 11:38:20;;;;;;;20.05;12.55;;;5.50;99.90;;;;;;4977036;28;20053;-75
2022/04/04 11:40:53;;;;;;;17.05;12.30;;;5.60;99.90;;;;;;4994560;28;20037;-76
2022/04/04 11:43:21;;;;;;;17.92;12.82;;;5.50;99.90;;;;;;4994684;28;20105;-76
2022/04/04 11:45:49;;;;;;;19.23;13.15;;;5.60;99.90;;;;;;4993326;28;20104;-74
2022/04/04 11:48:27;;;;;;;17.08;12.70;;;5.70;99.90;;;;;;4994361;28;20476;-75
2022/04/04 11:50:57;;;;;;;16.88;12.43;;;5.60;99.90;;;;;;4993619;28;20034;-76
2022/04/04 11:53:25;;;;;;;17.83;13.45;;;5.60;99.90;;;;;;4995723;28;20078;-76
2022/04/04 11:56:00;;;;;;;19.85;12.68;;;5.70;99.90;;;;;;5003133;28;20114;-75
2022/04/04 11:58:27;;;;;;;18.50;12.60;;;5.70;99.90;;;;;;4981182;28;20439;-74
2022/04/04 12:01:00;;;;;;;18.83;13.93;;;5.80;99.90;;;;;;4998592;28;20054;-74
2022/04/04 12:03:27;;;;;;;18.73;14.38;;;5.80;99.90;;;;;;4990995;28;20042;-75
2022/04/04 12:05:53;;;;;;;19.25;14.13;;;5.80;99.90;;;;;;5009438;28;20030;-76
2022/04/04 12:08:21;;;;;;;18.83;14.13;;;5.80;99.90;;;;;;5008328;28;20022;-76
2022/04/04 12:10:48;;;;;;;20.55;13.50;;;5.80;99.90;;;;;;5003076;28;20124;-76
2022/04/04 12:13:17;;;;;;;21.85;13.85;;;5.90;99.90;;;;;;5002439;28;20476;-74
2022/04/04 12:15:44;;;;;;;22.20;14.98;;;5.90;99.90;;;;;;5000040;28;20029;-75
2022/04/04 12:18:23;;;;;;;20.35;14.35;;;5.90;99.90;;;;;;4996668;28;20066;-76
2022/04/04 12:20:51;;;;;;;17.90;13.85;;;5.90;99.90;;;;;;5021219;23;20362;-77
2022/04/04 12:26:08;;;;;;;18.77;13.85;;;6.00;99.90;;;;;;5004599;28;20441;-76
2022/04/04 12:28:50;;;;;;;18.52;14.88;;;6.00;99.90;;;;;;5000317;28;20030;-76
2022/04/04 12:31:21;;;;;;;20.80;13.75;;;6.00;99.90;;;;;;4996693;28;20061;-76
2022/04/04 12:33:55;;;;;;;18.60;13.45;;;6.00;99.90;;;;;;4996616;28;20490;-76
2022/04/04 12:36:38;;;;;;;17.33;12.88;;;6.10;99.90;;;;;;4996835;28;20022;-76
2022/04/04 12:39:05;;;;;;;16.42;12.57;;;6.10;99.90;;;;;;4996576;28;20130;-76
2022/04/04 12:41:43;;;;;;;14.90;12.32;;;6.20;99.90;;;;;;4995040;28;20026;-78
2022/04/04 12:44:10;;;;;;;15.38;11.73;;;6.20;99.90;;;;;;4996192;28;20121;-75
2022/04/04 12:46:36;;;;;;;14.80;11.73;;;6.20;99.90;;;;;;4996134;28;20049;-77
2022/04/04 12:49:19;;;;;;;16.30;11.70;;;6.20;99.90;;;;;;4994758;28;20487;-77